Latest Weather Observations for Christmas Island

IDW60801

Issued at 9:31 am WST Monday 2 May 2016 (issued every 30 minutes, with the page automatically refreshed every 10 minutes)

About weather observations | Map of weather stations | Latest weather observations for WA | Other Formats
Station Details ID: 200790 Name: CHRISTMAS ISLAND AERO Lat: -10.45 Lon: 105.69 Height: 261.0 m
Data from the previous 72 hours. | See also: Recent months at Christmas Island
Date/Time
WST
Temp
°C
App
Temp
°C
Dew
Point
Rel
Hum
%
Delta-T
°C
Wind Press
QNH
hPa
Press
MSL
hPa
Rain
since 9 am
mm
Dir
 
Spd
km/h
Gust
km/h
Spd
kts
Gust
kts
02/09:30am 26.6 29.3 24.7 89 1.3 ESE 19 32 10 17 1014.4 - 85.2
02/09:14am 26.2 29.1 25.1 94 0.8 ESE 19 30 10 16 1014.2 - 85.2
02/09:00am 25.9 28.9 25.2 96 0.5 ESE 19 26 10 14 1014.0 - 85.2
02/08:30am 25.8 28.0 24.2 91 1.1 SE 20 32 11 17 1014.1 - 84.4
02/08:00am 26.1 28.6 24.4 90 1.2 ESE 19 26 10 14 1013.9 - 82.8
02/07:30am 25.8 29.0 24.9 95 0.6 E 17 24 9 13 1013.1 - 82.8
02/07:00am 25.6 28.1 24.7 95 0.6 SE 20 33 11 18 1012.6 1010.9 82.8
02/06:30am 25.7 28.2 24.8 95 0.6 ESE 20 28 11 15 1012.4 - 82.8
02/06:00am 25.5 28.4 24.5 94 0.7 SE 17 26 9 14 1011.8 - 82.8
02/05:57am 25.4 28.3 24.4 94 0.7 SE 17 26 9 14 1011.8 - 82.8
02/05:56am 25.4 28.3 24.4 94 0.7 SE 17 24 9 13 1011.8 - 82.8
02/05:30am 25.3 27.2 24.4 95 0.6 SE 22 35 12 19 1011.6 - 79.8
02/05:11am 25.5 28.1 24.6 95 0.6 ESE 19 28 10 15 1011.5 - 74.6
02/05:00am 25.3 28.2 24.4 95 0.6 SE 17 24 9 13 1011.2 - 72.4
02/04:55am 25.4 28.3 24.5 95 0.6 SE 17 24 9 13 1011.3 - 72.4
02/04:30am 25.0 28.2 24.3 96 0.5 SE 15 22 8 12 1011.6 - 69.4
02/04:02am 25.1 29.2 24.5 96 0.4 S 11 17 6 9 1011.5 - 57.0
02/04:00am 25.2 29.3 24.5 96 0.5 S 11 15 6 8 1011.5 1009.9 57.0
02/03:30am 25.0 27.4 24.3 96 0.5 SE 19 26 10 14 1011.8 - 57.0
02/03:00am 25.7 28.4 24.8 95 0.6 SE 19 26 10 14 1012.2 - 57.0
02/02:32am 25.1 29.1 24.4 96 0.5 SE 11 19 6 10 1012.3 - 57.0
02/02:30am 25.0 28.9 24.3 96 0.5 SE 11 17 6 9 1012.4 - 57.0
02/02:07am 25.5 29.0 24.8 96 0.5 SE 15 26 8 14 1012.8 - 48.8
02/02:00am 25.4 28.8 24.7 96 0.5 SE 15 24 8 13 1012.6 - 47.8
02/01:30am 25.1 28.2 24.2 95 0.6 SE 15 20 8 11 1013.1 - 47.8
02/01:11am 25.4 28.8 24.7 96 0.5 SE 15 20 8 11 1013.4 - 47.8
02/01:10am 25.4 28.8 24.7 96 0.5 SE 15 20 8 11 1013.4 - 47.8
02/01:00am 25.0 28.6 24.4 96 0.4 SE 13 19 7 10 1013.5 1011.9 47.8
02/12:47am 24.7 28.5 24.0 96 0.5 SE 11 17 6 9 1013.4 - 47.8
02/12:30am 24.5 27.8 23.9 96 0.4 SE 13 19 7 10 1013.5 - 47.8
02/12:08am 24.6 28.0 24.0 96 0.4 SE 13 19 7 10 1014.0 - 47.8
02/12:07am 24.6 28.0 24.0 96 0.4 SE 13 19 7 10 1014.0 - 47.8
02/12:00am 24.6 27.2 24.0 96 0.4 ESE 17 28 9 15 1014.1 - 47.8
 
Date/Time
WST
Temp
°C
App
Temp
°C
Dew
Point
Rel
Hum
%
Delta-T
°C
Wind Press
QNH
hPa
Press
MSL
hPa
Rain
since 9 am
mm
Dir
 
Spd
km/h
Gust
km/h
Spd
kts
Gust
kts
01/11:30pm 24.4 28.0 23.8 96 0.4 SSE 11 22 6 12 1014.2 - 47.8
01/11:09pm 24.5 28.6 23.9 96 0.4 S 9 13 5 7 1014.1 - 43.0
01/11:03pm 24.2 28.5 23.6 96 0.4 SSE 7 13 4 7 1014.1 - 42.6
01/11:00pm 24.2 28.1 23.6 96 0.4 SSE 9 17 5 9 1014.1 - 42.6
01/10:30pm 24.6 26.6 24.0 96 0.4 E 20 28 11 15 1014.2 - 36.0
01/10:28pm 24.6 26.6 24.0 96 0.4 SE 20 32 11 17 1014.2 - 35.2
01/10:26pm 24.9 29.3 24.5 98 0.3 SSE 9 20 5 11 1014.0 - 34.0
01/10:00pm 25.0 29.1 24.6 98 0.3 SSE 11 17 6 9 1013.9 1012.3 33.8
01/09:51pm 25.1 28.8 24.5 96 0.4 SE 13 19 7 10 1013.9 - 33.8
01/09:45pm 25.1 29.2 24.5 96 0.4 ESE 11 17 6 9 1014.0 - 33.4
01/09:30pm 24.7 27.4 24.1 96 0.4 E 17 24 9 13 1013.9 - 33.4
01/09:19pm 24.8 28.7 24.2 96 0.4 SE 11 19 6 10 1013.9 - 30.8
01/09:00pm 24.4 28.4 23.8 96 0.4 SSE 9 13 5 7 1013.3 - 29.8
01/08:35pm 24.1 28.3 23.5 96 0.4 SE 7 11 4 6 1013.5 - 29.4
01/08:30pm 24.0 28.2 23.4 96 0.4 SE 7 11 4 6 1013.5 - 29.2
01/08:16pm 23.9 27.6 23.3 96 0.4 SE 9 13 5 7 1013.0 - 29.2
01/08:08pm 23.7 27.9 23.1 96 0.4 SE 6 11 3 6 1013.0 - 29.0
01/08:00pm 23.6 27.5 23.0 96 0.4 SE 7 13 4 7 1013.1 - 28.6
01/07:30pm 23.8 25.9 23.1 96 0.5 E 17 28 9 15 1013.1 - 26.8
01/07:00pm 24.0 25.6 22.8 93 0.8 SE 19 24 10 13 1012.1 1010.4 18.4
01/06:40pm 25.9 29.1 25.0 95 0.6 ESE 17 24 9 13 1012.2 - 8.6
01/06:30pm 25.8 29.0 24.9 95 0.6 SE 17 24 9 13 1011.8 - 6.8
01/06:16pm 25.5 29.6 24.5 94 0.7 SE 11 20 6 11 1011.7 - 6.8
01/06:00pm 24.2 26.9 22.9 92 0.9 SSE 13 24 7 13 - - 6.4
01/05:52pm 25.5 27.4 24.4 94 0.8 ENE 22 30 12 16 1011.8 - 1.6
01/05:30pm 26.3 28.0 24.7 91 1.1 ESE 24 33 13 18 1011.3 - 0.2
01/05:00pm 26.7 29.3 24.6 88 1.5 ESE 19 30 10 16 1011.2 - 0.0
01/04:30pm 26.8 29.3 24.5 87 1.6 ESE 19 26 10 14 1010.9 - 0.0
01/04:00pm 27.0 29.7 24.1 84 2.0 E 17 32 9 17 1010.9 1009.3 0.0
01/03:30pm 27.0 29.6 24.0 83 2.1 ESE 17 30 9 16 1010.6 - 0.0
01/03:00pm 26.7 28.9 24.3 87 1.7 ESE 20 32 11 17 1010.8 - 0.0
01/02:30pm 27.4 30.4 25.3 88 1.5 ESE 19 26 10 14 1011.1 - 0.0
01/02:00pm 27.5 30.2 24.8 85 1.9 ESE 19 30 10 16 1011.1 - 0.0
01/01:30pm 26.9 30.1 24.9 89 1.4 E 17 32 9 17 1011.4 - 0.0
01/01:00pm 26.8 29.3 24.8 89 1.4 ESE 20 33 11 18 1012.3 1010.6 0.0
01/12:30pm 27.3 29.4 25.3 89 1.4 ESE 24 33 13 18 1012.7 - 0.0
01/12:00pm 27.2 28.7 24.3 84 2.0 ESE 24 33 13 18 1013.1 - 0.0
01/11:46am 27.2 29.2 24.6 86 1.8 ESE 22 32 12 17 1013.2 - 0.0
01/11:39am 26.8 28.3 24.4 87 1.7 ESE 24 35 13 19 1013.2 - 0.0
01/11:30am 26.5 28.1 24.5 89 1.4 ESE 24 37 13 20 1013.2 - 0.0
01/11:00am 26.2 27.7 24.9 92 0.9 ESE 26 39 14 21 1013.4 - 0.0
01/10:30am 26.3 27.8 24.9 92 1.0 SE 26 35 14 19 1013.5 - 0.0
01/10:00am 26.2 27.4 23.9 87 1.6 SE 24 35 13 19 1013.7 1012.1 3.2
01/09:30am 26.4 29.1 25.0 92 1.0 ESE 20 26 11 14 1013.7 - 3.2
01/09:07am 25.1 28.4 23.9 93 0.8 ESE 13 19 7 10 1014.0 - 3.2
01/09:02am 24.9 27.7 23.7 93 0.8 ESE 15 19 8 10 1014.0 - 3.2
01/09:00am 24.7 27.5 23.7 94 0.7 ESE 15 22 8 12 1013.9 - 3.2
01/08:30am 25.4 27.1 24.0 92 1.0 E 22 28 12 15 1013.9 - 3.0
01/08:00am 26.0 28.2 24.3 90 1.2 SE 20 30 11 16 1013.6 - 3.0
01/07:30am 26.0 28.1 24.1 89 1.3 SE 20 33 11 18 1013.1 - 3.0
01/07:00am 25.9 28.1 24.2 90 1.2 ESE 20 30 11 16 1012.8 1011.2 3.0
01/06:30am 25.7 28.5 24.3 92 1.0 ESE 17 28 9 15 1012.8 - 3.0
01/06:00am 25.8 28.5 24.7 94 0.8 ESE 19 28 10 15 1012.3 - 3.0
01/05:30am 25.5 28.0 24.4 94 0.8 ESE 19 30 10 16 1011.8 - 3.0
01/05:00am 24.7 27.0 23.4 92 0.9 SE 17 24 9 13 1011.8 - 3.0
01/04:30am 25.5 26.8 24.1 92 1.0 ESE 24 35 13 19 1011.7 - 3.0
01/04:00am 25.9 27.9 24.0 89 1.3 ESE 20 30 11 16 1012.2 1010.5 2.6
01/03:30am 25.5 27.7 24.2 92 0.9 SE 20 28 11 15 1012.2 - 2.6
01/03:00am 25.6 28.5 24.5 94 0.8 SE 17 24 9 13 1012.1 - 2.6
01/02:30am 25.6 28.1 24.5 94 0.8 SE 19 28 10 15 1012.4 - 2.6
01/02:00am 25.5 27.8 24.4 94 0.8 SE 20 30 11 16 1012.6 - 2.6
01/01:30am 25.9 28.4 24.8 94 0.8 SE 20 30 11 16 1013.0 - 2.6
01/01:24am 25.8 28.3 24.4 92 1.0 SE 19 26 10 14 1013.1 - 2.6
01/01:20am 25.6 28.0 24.3 92 0.9 SE 19 26 10 14 1013.2 - 2.6
01/01:00am 25.7 27.8 24.7 94 0.7 SE 22 33 12 18 1013.1 1011.5 2.6
01/12:30am 25.7 28.3 24.6 94 0.8 SE 19 26 10 14 1013.4 - 2.6
01/12:00am 25.6 27.8 24.3 92 0.9 ESE 20 30 11 16 1013.5 - 2.6
 
Date/Time
WST
Temp
°C
App
Temp
°C
Dew
Point
Rel
Hum
%
Delta-T
°C
Wind Press
QNH
hPa
Press
MSL
hPa
Rain
since 9 am
mm
Dir
 
Spd
km/h
Gust
km/h
Spd
kts
Gust
kts
30/11:30pm 25.7 28.7 24.7 94 0.7 SE 17 22 9 12 1013.9 - 2.6
30/11:28pm 25.7 28.7 24.7 94 0.7 SE 17 22 9 12 1013.9 - 2.6
30/11:18pm 25.6 28.6 24.6 94 0.7 SE 17 22 9 12 1014.1 - 2.6
30/11:00pm 25.5 28.4 24.4 94 0.8 SE 17 28 9 15 1014.1 - 2.6
30/10:30pm 25.1 28.4 23.9 93 0.8 SE 13 20 7 11 1013.9 - 2.6
30/10:10pm 24.9 27.8 23.9 94 0.7 SE 15 20 8 11 1014.0 - 2.6
30/10:00pm 25.2 27.9 24.2 94 0.7 SE 17 26 9 14 1013.9 1012.3 2.6
30/09:30pm 26.1 29.2 24.8 92 0.9 ESE 17 24 9 13 1013.6 - 2.6
30/09:00pm 25.9 27.9 23.9 89 1.4 ESE 20 30 11 16 1013.2 - 2.4
30/08:30pm 26.5 28.9 24.3 88 1.5 SE 19 26 10 14 1013.0 - 1.8
30/08:00pm 26.6 29.2 23.9 85 1.9 SE 17 24 9 13 1012.7 - 1.8
30/07:54pm 26.4 28.8 23.7 85 1.9 SE 17 24 9 13 1012.7 - 1.8
30/07:30pm 26.3 29.2 23.2 83 2.1 SE 13 20 7 11 1012.6 - 1.8
30/07:22pm 26.3 28.8 23.1 82 2.2 SE 15 22 8 12 1012.4 - 1.8
30/07:00pm 26.5 29.2 24.2 87 1.6 ESE 17 24 9 13 1012.1 1010.4 1.8
30/06:30pm 26.6 28.8 24.0 86 1.8 ESE 19 28 10 15 1011.8 - 1.8
30/06:00pm 26.6 28.8 23.9 85 1.9 SE 19 28 10 15 1011.3 - 1.8
30/05:30pm 26.6 29.0 24.3 87 1.6 ESE 19 24 10 13 1011.4 - 1.8
30/05:00pm 26.6 28.8 24.2 87 1.7 ESE 20 26 11 14 1011.2 - 1.8
30/04:30pm 27.2 29.6 24.2 84 2.1 ESE 19 24 10 13 1010.7 - 1.8
30/04:04pm 27.4 29.6 24.3 83 2.2 ESE 20 28 11 15 1010.8 - 1.8
30/04:00pm 27.6 30.0 24.3 82 2.3 ESE 19 28 10 15 1010.8 1009.2 1.8
30/03:51pm 27.5 29.9 24.2 82 2.3 ESE 19 28 10 15 1010.8 - 1.8
30/03:30pm 27.3 29.4 24.1 83 2.2 ESE 20 28 11 15 1010.9 - 1.8
30/03:00pm 27.2 29.6 24.6 86 1.8 ESE 20 30 11 16 1011.4 - 1.8
30/02:30pm 27.2 29.6 24.6 86 1.8 ESE 20 30 11 16 1011.7 - 1.8
30/02:00pm 26.7 29.4 24.7 89 1.4 ESE 19 28 10 15 1012.2 - 1.8
30/01:30pm 26.4 28.7 24.1 87 1.6 ESE 19 26 10 14 1012.3 - 1.8
30/01:00pm 27.1 28.7 23.9 82 2.2 ESE 22 32 12 17 1012.5 1010.8 1.8
30/12:30pm 27.3 29.0 24.0 82 2.3 SE 22 35 12 19 1012.9 - 1.8
30/12:02pm 27.0 28.7 24.0 83 2.1 ESE 22 35 12 19 1013.5 - 1.8
30/12:00pm 26.9 28.4 23.7 82 2.2 ESE 22 35 12 19 1013.5 - 1.8
30/11:30am 26.2 27.7 24.3 89 1.3 ESE 24 37 13 20 1013.6 - 1.8
30/11:15am 25.9 28.9 24.6 92 0.9 SE 17 28 9 15 1013.8 - 1.8
30/11:00am 25.9 27.0 24.3 91 1.1 SE 26 37 14 20 1013.9 - 1.6
30/10:55am 26.2 27.1 24.0 88 1.5 ESE 26 39 14 21 1013.9 - 1.2
30/10:30am 27.5 29.1 23.8 80 2.6 ESE 22 32 12 17 1013.9 - 0.0
30/10:00am 27.3 28.4 23.7 81 2.5 ESE 24 35 13 19 1013.7 1012.1 0.0
30/09:30am 27.5 28.7 23.8 80 2.6 ESE 24 35 13 19 1013.5 - 0.0
30/09:11am 27.1 28.7 23.9 82 2.2 SE 22 32 12 17 1013.3 - 0.0
30/09:00am 27.0 28.4 23.5 81 2.4 ESE 22 30 12 16 1013.1 - 0.0
30/08:30am 27.2 28.8 22.8 77 3.0 SE 19 26 10 14 1012.9 - 0.0
30/08:00am 26.8 28.4 23.3 81 2.4 SE 20 33 11 18 1012.8 - 0.0
30/07:43am 26.4 27.7 22.7 80 2.5 SE 20 26 11 14 1012.7 - 0.0
30/07:30am 26.3 27.2 22.6 80 2.5 SE 22 32 12 17 1012.6 - 0.0
30/07:18am 26.1 27.1 22.9 82 2.2 SE 22 35 12 19 1012.5 - 0.0
30/07:00am 26.2 26.6 22.5 80 2.5 SE 24 33 13 18 1012.4 1010.7 0.0
30/06:50am 26.1 27.4 22.7 81 2.3 SE 20 30 11 16 1012.4 - 0.0
30/06:30am 26.0 26.6 22.8 82 2.2 SE 24 35 13 19 1012.2 - 0.0
30/06:22am 26.1 27.1 22.9 82 2.2 SE 22 33 12 18 1012.1 - 0.0
30/06:14am 26.1 27.0 22.7 81 2.3 SE 22 35 12 19 1011.9 - 0.0
30/06:00am 26.2 27.0 22.5 80 2.5 ESE 22 32 12 17 1012.2 - 0.0
30/05:38am 26.1 26.3 22.7 81 2.3 SE 26 37 14 20 1012.1 - 0.0
30/05:30am 26.1 26.8 22.9 82 2.2 ESE 24 33 13 18 1011.9 - 0.0
30/05:00am 26.0 26.7 22.3 80 2.5 ESE 22 33 12 18 1011.8 - 0.0
30/04:30am 26.1 27.0 22.6 81 2.4 ESE 22 32 12 17 1011.9 - 0.0
30/04:00am 26.0 26.3 22.3 80 2.5 ESE 24 33 13 18 1011.9 1010.3 0.0
30/03:30am 26.1 26.8 22.9 82 2.2 SE 24 32 13 17 1011.9 - 0.0
30/03:00am 25.9 26.3 21.7 77 2.8 SE 22 30 12 16 1011.9 - 0.0
30/02:30am 25.9 26.3 21.7 77 2.8 ESE 22 33 12 18 1012.4 - 0.0
30/02:00am 26.0 26.7 22.3 80 2.5 SE 22 32 12 17 1012.6 - 0.0
30/01:30am 26.1 27.1 22.1 78 2.7 ESE 20 32 11 17 1012.8 - 0.0
30/01:00am 26.0 27.1 22.3 80 2.5 SE 20 32 11 17 1012.8 1011.2 0.0
30/12:30am 25.7 26.9 21.4 77 2.9 SE 17 26 9 14 1012.8 - 0.0
30/12:00am 25.8 26.8 22.1 80 2.5 SE 20 30 11 16 1013.1 - 0.0
 
Date/Time
WST
Temp
°C
App
Temp
°C
Dew
Point
Rel
Hum
%
Delta-T
°C
Wind Press
QNH
hPa
Press
MSL
hPa
Rain
since 9 am
mm
Dir
 
Spd
km/h
Gust
km/h
Spd
kts
Gust
kts
29/11:30pm 26.0 27.1 22.3 80 2.5 SE 20 28 11 15 1013.0 - 0.0
29/11:00pm 25.9 26.1 21.4 76 3.0 SE 22 33 12 18 1013.2 - 0.0
29/10:30pm 26.0 26.3 22.2 79 2.6 ESE 24 30 13 16 1013.3 - 0.0
29/10:00pm 26.0 27.4 22.5 81 2.4 SE 19 28 10 15 1013.4 1011.8 0.0
29/09:30pm 26.1 27.4 22.4 80 2.5 SE 19 28 10 15 1013.4 - 0.0
29/09:00pm 26.1 27.6 22.7 81 2.3 SE 19 26 10 14 1013.4 - 0.0
29/08:30pm 26.0 26.6 20.2 70 3.8 SE 17 24 9 13 1013.0 - 0.0
29/08:00pm 25.9 27.7 21.9 78 2.7 SE 15 22 8 12 1012.6 - 0.0
29/07:30pm 26.0 27.1 21.2 75 3.2 SE 17 22 9 12 1012.4 - 0.0
29/07:00pm 26.0 27.7 21.7 77 2.9 SE 15 22 8 12 1012.2 1010.5 0.0
29/06:30pm 26.3 28.6 22.0 77 2.9 SE 13 20 7 11 1011.8 - 0.0
29/06:00pm 26.9 29.0 22.5 77 3.0 SE 15 20 8 11 1011.6 - 0.0
29/05:30pm 27.0 29.5 22.5 76 3.1 SE 13 20 7 11 1011.5 - 0.0
29/05:00pm 27.5 30.0 22.5 74 3.4 SE 13 20 7 11 1011.3 - 0.0
29/04:30pm 27.3 29.9 22.6 75 3.2 SE 13 20 7 11 1011.4 - 0.0
29/04:00pm 27.8 29.7 22.7 74 3.5 SE 17 24 9 13 1011.3 1009.7 0.0
29/03:30pm 27.7 29.4 22.3 72 3.7 ESE 17 22 9 12 1011.4 - 0.0
29/03:00pm 27.6 29.4 22.5 74 3.5 ESE 17 22 9 12 1011.7 - 0.0
29/02:30pm 27.6 29.9 22.8 75 3.3 ESE 15 19 8 10 1012.1 - 0.0
29/02:00pm 27.4 30.0 22.6 75 3.3 E 13 19 7 10 1012.6 - 0.0
29/01:30pm 27.2 29.3 22.4 75 3.3 ESE 15 22 8 12 1012.9 - 0.0
29/01:00pm 27.7 30.4 22.9 75 3.3 E 13 22 7 12 1013.3 1011.7 0.0
29/12:30pm 28.3 30.5 22.6 71 3.9 E 15 24 8 13 1013.8 - 0.0
29/12:00pm 27.7 30.1 22.3 72 3.7 ESE 13 20 7 11 1014.3 - 0.0
29/11:30am 27.9 29.6 21.7 69 4.2 E 15 24 8 13 1014.6 - 0.0
29/11:00am 27.4 29.2 21.8 71 3.8 ESE 15 24 8 13 1014.7 - 0.0

Other Formats:

Comma delimited format used in spreadsheet applications
http://www.bom.gov.au/fwo/IDW60801/IDW60801.96995.axf

JavaScript Object Notation format (JSON) in row-major order
http://www.bom.gov.au/fwo/IDW60801/IDW60801.96995.json